Time;durP1;ratioP1;P1;durP2;ratioP2;P2;SDS_P1;SDS_P2;PMS_P1;PMS_P2;Temp;Humidity;BMP_temperature;BMP_pressure;BME280_temperature;BME280_humidity;BME280_pressure;Samples;Min_cycle;Max_cycle;Signal;HPM_P1;HPM_P2
2024/04/17 00:01:11;;;;;;;5.75;1.50;;;6.90;99.90;;;;;;5535168;25;20094;-38
2024/04/17 00:03:36;;;;;;;4.60;1.58;;;6.90;99.90;;;;;;5541472;25;19996;-36
2024/04/17 00:06:02;;;;;;;3.75;1.55;;;6.90;99.90;;;;;;5530243;25;20080;-33
2024/04/17 00:08:28;;;;;;;6.47;1.90;;;6.90;99.90;;;;;;5517071;25;20009;-39
2024/04/17 00:10:53;;;;;;;3.00;1.42;;;6.90;99.90;;;;;;5531357;25;20001;-38
2024/04/17 00:13:21;;;;;;;2.63;1.27;;;6.90;99.90;;;;;;5512808;25;20041;-38
2024/04/17 00:15:47;;;;;;;5.25;1.80;;;6.90;99.90;;;;;;5531484;25;20365;-37
2024/04/17 00:18:13;;;;;;;4.40;1.67;;;6.80;99.90;;;;;;5510690;25;20589;-38
2024/04/17 00:20:38;;;;;;;4.43;1.60;;;6.80;99.90;;;;;;5532418;25;20009;-36
2024/04/17 00:23:04;;;;;;;4.88;1.50;;;6.80;99.90;;;;;;5509163;25;20433;-37
2024/04/17 00:25:32;;;;;;;4.72;1.30;;;6.70;99.90;;;;;;5528174;25;20000;-38
2024/04/17 00:27:57;;;;;;;5.47;1.60;;;6.70;99.90;;;;;;5503660;26;20389;-36
2024/04/17 00:30:23;;;;;;;3.15;1.60;;;6.70;99.90;;;;;;5524348;25;20488;-35
2024/04/17 00:32:49;;;;;;;3.72;1.38;;;6.70;99.90;;;;;;5507622;25;20001;-35
2024/04/17 00:35:15;;;;;;;3.22;1.20;;;6.70;99.90;;;;;;5522438;25;20530;-34
2024/04/17 00:37:40;;;;;;;3.20;1.30;;;6.60;99.90;;;;;;5513923;25;20001;-38
2024/04/17 00:40:07;;;;;;;2.92;1.27;;;6.60;99.90;;;;;;5517773;25;20026;-36
2024/04/17 00:42:32;;;;;;;5.75;1.90;;;6.50;99.90;;;;;;5519236;25;20001;-38
2024/04/17 00:44:58;;;;;;;4.18;1.65;;;6.50;99.90;;;;;;5512301;25;20467;-36
2024/04/17 00:47:24;;;;;;;4.40;1.77;;;6.50;99.90;;;;;;5523936;25;19994;-38
2024/04/17 00:49:50;;;;;;;5.55;1.70;;;6.40;99.90;;;;;;5509359;25;19993;-35
2024/04/17 00:52:18;;;;;;;7.50;1.83;;;6.40;99.90;;;;;;5528154;25;20579;-38
2024/04/17 00:54:45;;;;;;;6.38;2.13;;;6.40;99.90;;;;;;5511033;25;20005;-39
2024/04/17 00:57:17;;;;;;;5.28;1.55;;;6.40;99.90;;;;;;5530364;25;19998;-37
2024/04/17 00:59:43;;;;;;;3.63;1.67;;;6.40;99.90;;;;;;5509110;25;20021;-38
2024/04/17 01:02:08;;;;;;;5.60;1.60;;;6.40;99.90;;;;;;5534011;25;19993;-37
2024/04/17 01:04:37;;;;;;;4.32;1.98;;;6.40;99.90;;;;;;5513275;25;20692;-38
2024/04/17 01:07:03;;;;;;;6.85;1.67;;;6.40;99.90;;;;;;5530059;25;20004;-37
2024/04/17 01:09:28;;;;;;;4.60;1.90;;;6.40;99.90;;;;;;5512122;26;19997;-38
2024/04/17 01:11:54;;;;;;;7.82;1.92;;;6.30;99.90;;;;;;5535859;25;20036;-38
2024/04/17 01:14:19;;;;;;;5.53;1.90;;;6.30;99.90;;;;;;5513586;25;20090;-37
2024/04/17 01:16:45;;;;;;;8.15;1.92;;;6.30;99.90;;;;;;5528226;25;20049;-37
2024/04/17 01:19:12;;;;;;;4.65;2.20;;;6.30;99.90;;;;;;5516187;25;20150;-36
2024/04/17 01:21:37;;;;;;;7.18;2.33;;;6.30;99.90;;;;;;5523327;25;20007;-35
2024/04/17 01:24:03;;;;;;;8.88;2.20;;;6.30;99.90;;;;;;5519215;25;20409;-38
2024/04/17 01:26:29;;;;;;;6.20;1.80;;;6.30;99.90;;;;;;5517681;25;20005;-38
2024/04/17 01:28:54;;;;;;;6.07;2.00;;;6.30;99.90;;;;;;5524271;25;20085;-38
2024/04/17 01:31:20;;;;;;;6.90;1.88;;;6.30;99.90;;;;;;5511773;25;20013;-33
2024/04/17 01:33:45;;;;;;;3.72;1.77;;;6.30;99.90;;;;;;5530120;25;20123;-36
2024/04/17 01:36:14;;;;;;;7.85;2.38;;;6.30;99.90;;;;;;5514378;25;20017;-35
2024/04/17 01:38:41;;;;;;;3.80;1.40;;;6.30;99.90;;;;;;5532416;25;20050;-37
2024/04/17 01:41:06;;;;;;;4.50;1.90;;;6.30;99.90;;;;;;5513190;25;20029;-37
2024/04/17 01:43:32;;;;;;;4.28;1.58;;;6.30;99.90;;;;;;5533524;25;20008;-34
2024/04/17 01:45:59;;;;;;;4.13;1.60;;;6.40;99.90;;;;;;5512857;25;20012;-37
2024/04/17 01:48:25;;;;;;;2.53;1.00;;;6.40;99.90;;;;;;5535713;25;20004;-38
2024/04/17 01:50:50;;;;;;;3.33;1.42;;;6.40;99.90;;;;;;5511095;26;20106;-35
2024/04/17 01:53:34;;;;;;;5.00;1.60;;;6.40;99.90;;;;;;5534445;25;20000;-35
2024/04/17 01:56:03;;;;;;;4.15;2.17;;;6.40;99.90;;;;;;5474676;26;19999;-36
2024/04/17 01:58:28;;;;;;;5.72;2.20;;;6.40;99.90;;;;;;5527877;25;20001;-36
2024/04/17 02:00:54;;;;;;;5.82;2.10;;;6.40;99.90;;;;;;5512350;25;20013;-38
2024/04/17 02:03:19;;;;;;;6.00;1.83;;;6.40;99.90;;;;;;5529526;25;20475;-37
2024/04/17 02:05:45;;;;;;;4.00;1.70;;;6.40;99.90;;;;;;5516215;25;20009;-35
2024/04/17 02:08:10;;;;;;;4.38;2.25;;;6.40;99.90;;;;;;5523268;25;20012;-37
2024/04/17 02:10:36;;;;;;;4.75;1.60;;;6.40;99.90;;;;;;5538699;25;20069;-38
2024/04/17 02:13:02;;;;;;;6.25;1.73;;;6.40;99.90;;;;;;5537882;25;20005;-34
2024/04/17 02:15:27;;;;;;;3.35;1.55;;;6.40;99.90;;;;;;5532315;25;20003;-35
2024/04/17 02:17:53;;;;;;;2.45;1.30;;;6.40;99.90;;;;;;5542809;25;20005;-35
2024/04/17 02:20:18;;;;;;;4.28;1.42;;;6.40;99.90;;;;;;5525611;25;20008;-38
2024/04/17 02:22:44;;;;;;;3.58;1.77;;;6.40;99.90;;;;;;5544549;25;20012;-37
2024/04/17 02:25:13;;;;;;;5.55;1.60;;;6.40;99.90;;;;;;5525071;25;20011;-37
2024/04/17 02:27:38;;;;;;;6.72;1.60;;;6.40;99.90;;;;;;5542127;25;20001;-36
2024/04/17 02:30:04;;;;;;;3.88;1.25;;;6.50;99.90;;;;;;5522389;25;20744;-35
2024/04/17 02:32:30;;;;;;;2.50;1.20;;;6.50;99.90;;;;;;5546505;25;20003;-36
2024/04/17 02:34:56;;;;;;;2.72;1.20;;;6.40;99.90;;;;;;5521751;25;19993;-39
2024/04/17 02:37:21;;;;;;;4.75;1.25;;;6.50;99.90;;;;;;5546661;25;20838;-39
2024/04/17 02:39:47;;;;;;;3.25;1.48;;;6.50;99.90;;;;;;5524088;25;20344;-41
2024/04/17 02:42:12;;;;;;;4.03;1.48;;;6.50;99.90;;;;;;5545935;25;20589;-35
2024/04/17 02:44:38;;;;;;;3.78;1.50;;;6.50;99.90;;;;;;5531507;25;20004;-39
2024/04/17 02:47:04;;;;;;;2.78;1.45;;;6.50;99.90;;;;;;5541765;25;19996;-37
2024/04/17 02:49:29;;;;;;;4.13;1.98;;;6.50;99.90;;;;;;5536529;25;20009;-38
2024/04/17 02:51:55;;;;;;;2.97;1.55;;;6.50;99.90;;;;;;5537233;25;20036;-36
2024/04/17 02:54:21;;;;;;;4.75;1.75;;;6.50;99.90;;;;;;5540240;25;20069;-37
2024/04/17 02:56:46;;;;;;;4.43;1.42;;;6.50;99.90;;;;;;5533646;25;20005;-36
2024/04/17 02:59:12;;;;;;;4.68;1.60;;;6.50;99.90;;;;;;5545519;25;20754;-36
2024/04/17 03:01:37;;;;;;;9.02;2.00;;;6.60;99.90;;;;;;5526436;25;20001;-36
2024/04/17 03:04:03;;;;;;;9.38;2.45;;;6.60;99.90;;;;;;5545537;25;20016;-39
2024/04/17 03:06:28;;;;;;;7.22;2.58;;;6.50;99.90;;;;;;5526894;25;20032;-37
2024/04/17 03:08:57;;;;;;;6.63;2.08;;;6.50;99.90;;;;;;5512210;25;19997;-36
2024/04/17 03:11:22;;;;;;;3.38;2.25;;;6.50;99.90;;;;;;5531670;25;20040;-36
2024/04/17 03:13:48;;;;;;;3.72;1.80;;;6.50;99.90;;;;;;5507680;25;20078;-38
2024/04/17 03:16:16;;;;;;;5.43;2.10;;;6.40;99.90;;;;;;5529736;25;20008;-37
2024/04/17 03:18:42;;;;;;;2.40;1.50;;;6.50;99.90;;;;;;5507444;26;20407;-36
2024/04/17 03:21:07;;;;;;;4.47;2.17;;;6.50;99.90;;;;;;5528541;25;20048;-38
2024/04/17 03:23:33;;;;;;;2.63;1.50;;;6.50;99.90;;;;;;5509201;25;20742;-39
2024/04/17 03:26:00;;;;;;;2.63;1.33;;;6.50;99.90;;;;;;5527017;25;20515;-38
2024/04/17 03:28:26;;;;;;;4.65;1.48;;;6.60;99.90;;;;;;5517615;25;20189;-38
2024/04/17 03:30:52;;;;;;;2.97;1.70;;;6.60;99.90;;;;;;5521584;25;20005;-37
2024/04/17 03:33:18;;;;;;;2.58;1.50;;;6.60;99.90;;;;;;5522076;25;20012;-38
2024/04/17 03:35:56;;;;;;;3.30;1.48;;;6.60;99.90;;;;;;5517242;25;20035;-38
2024/04/17 03:38:25;;;;;;;4.63;1.58;;;6.70;99.90;;;;;;5522624;25;20008;-38
2024/04/17 03:40:52;;;;;;;4.18;1.50;;;6.70;99.90;;;;;;5516412;25;20009;-37
2024/04/17 03:43:17;;;;;;;3.10;1.33;;;6.70;99.90;;;;;;5526649;25;20009;-38
2024/04/17 03:45:43;;;;;;;2.85;1.05;;;6.70;99.90;;;;;;5513019;25;20081;-37
2024/04/17 03:48:09;;;;;;;3.03;1.13;;;6.70;99.90;;;;;;5531713;25;19993;-36
2024/04/17 03:50:34;;;;;;;2.22;0.90;;;6.80;99.90;;;;;;5513080;25;20009;-38
2024/04/17 03:53:00;;;;;;;0.80;0.80;;;6.80;99.90;;;;;;5531557;25;20081;-38
2024/04/17 03:55:26;;;;;;;3.70;1.30;;;6.80;99.90;;;;;;5510528;25;20009;-34
2024/04/17 03:57:51;;;;;;;3.20;1.00;;;6.90;99.90;;;;;;5533598;25;19997;-37
2024/04/17 04:00:20;;;;;;;1.58;0.90;;;6.90;99.90;;;;;;5510975;25;20009;-38
2024/04/17 04:02:45;;;;;;;1.10;0.80;;;6.90;99.90;;;;;;5532534;25;20015;-38
2024/04/17 04:05:11;;;;;;;1.92;1.08;;;7.00;99.90;;;;;;5509450;25;20009;-37
2024/04/17 04:07:38;;;;;;;2.50;1.10;;;7.00;99.90;;;;;;5512988;25;20384;-36
2024/04/17 04:10:06;;;;;;;4.00;1.20;;;7.00;99.90;;;;;;5507453;25;20013;-33
2024/04/17 04:12:35;;;;;;;3.30;1.20;;;7.00;99.90;;;;;;5517239;25;20004;-38
2024/04/17 04:15:07;;;;;;;4.85;1.50;;;6.90;99.90;;;;;;5538397;25;20034;-38
2024/04/17 04:17:36;;;;;;;3.00;1.30;;;6.80;99.90;;;;;;5530360;25;20001;-38
2024/04/17 04:20:05;;;;;;;3.75;1.48;;;6.70;99.90;;;;;;5534770;25;20801;-37
2024/04/17 04:22:31;;;;;;;2.05;1.20;;;6.70;99.90;;;;;;5535235;25;20009;-36
2024/04/17 04:24:56;;;;;;;3.80;1.55;;;6.70;99.90;;;;;;5535310;25;19997;-36
2024/04/17 04:27:22;;;;;;;1.70;1.15;;;6.60;99.90;;;;;;5540094;25;19997;-37
2024/04/17 04:29:48;;;;;;;1.92;1.40;;;6.60;99.90;;;;;;5526970;25;20001;-38
2024/04/17 04:32:13;;;;;;;3.05;1.20;;;6.60;99.90;;;;;;5541728;25;20001;-37
2024/04/17 04:34:39;;;;;;;1.50;1.02;;;6.70;99.90;;;;;;5522850;25;20004;-37
2024/04/17 04:37:13;;;;;;;1.20;1.10;;;6.70;99.90;;;;;;5541623;25;20763;-33
2024/04/17 04:39:39;;;;;;;1.83;1.27;;;6.70;99.90;;;;;;5523435;25;20008;-38
2024/04/17 04:42:05;;;;;;;1.52;1.20;;;6.80;99.90;;;;;;5543751;25;19997;-38
2024/04/17 04:44:30;;;;;;;1.67;1.15;;;6.80;99.90;;;;;;5522942;25;20000;-38
2024/04/17 04:46:56;;;;;;;1.30;1.00;;;6.90;99.90;;;;;;5545788;25;20080;-35
2024/04/17 04:49:24;;;;;;;1.85;1.13;;;6.90;99.90;;;;;;5523348;25;21004;-37
2024/04/17 04:51:50;;;;;;;3.25;1.40;;;6.90;99.90;;;;;;5517683;25;20001;-39
2024/04/17 04:54:16;;;;;;;2.88;1.45;;;6.90;99.90;;;;;;5530579;25;20012;-35
2024/04/17 04:56:41;;;;;;;3.38;1.42;;;6.90;99.90;;;;;;5510003;25;19998;-34
2024/04/17 04:59:07;;;;;;;1.92;1.58;;;6.90;99.90;;;;;;5524871;25;20008;-32
2024/04/17 05:01:32;;;;;;;2.28;1.30;;;6.90;99.90;;;;;;5514015;25;20009;-37
2024/04/17 05:03:58;;;;;;;1.90;1.20;;;6.90;99.90;;;;;;5518149;25;20005;-37
2024/04/17 05:06:27;;;;;;;2.63;1.52;;;6.90;99.90;;;;;;5516854;25;20066;-37
2024/04/17 05:08:52;;;;;;;2.55;1.45;;;6.90;99.90;;;;;;5530553;25;20881;-38
2024/04/17 05:11:18;;;;;;;1.95;1.48;;;6.90;99.90;;;;;;5528984;25;20009;-37
2024/04/17 05:13:43;;;;;;;1.75;1.23;;;7.00;99.90;;;;;;5540705;25;20069;-37
2024/04/17 05:16:09;;;;;;;2.20;1.45;;;7.00;99.90;;;;;;5523174;25;20008;-34
2024/04/17 05:18:34;;;;;;;2.78;1.40;;;7.00;99.90;;;;;;5543452;25;20008;-37
2024/04/17 05:21:03;;;;;;;3.08;2.03;;;7.00;99.90;;;;;;5525278;25;20008;-37
2024/04/17 05:23:28;;;;;;;2.58;1.90;;;7.00;99.90;;;;;;5545265;25;20336;-37
2024/04/17 05:25:57;;;;;;;3.92;1.80;;;7.00;99.90;;;;;;5523500;25;20001;-37
2024/04/17 05:28:23;;;;;;;1.30;1.20;;;7.00;99.90;;;;;;5546380;25;20097;-37
2024/04/17 05:30:58;;;;;;;2.22;1.30;;;7.00;99.90;;;;;;5522503;25;20010;-35
2024/04/17 05:33:24;;;;;;;1.52;1.20;;;7.00;99.90;;;;;;5546220;25;20075;-36
2024/04/17 05:35:50;;;;;;;2.28;1.27;;;7.00;99.90;;;;;;5521624;25;20008;-35
2024/04/17 05:38:16;;;;;;;1.77;1.60;;;7.00;99.90;;;;;;5546357;25;20020;-36
2024/04/17 05:40:45;;;;;;;2.53;1.20;;;7.00;99.90;;;;;;5526253;25;20009;-39
2024/04/17 05:43:10;;;;;;;1.02;0.88;;;7.00;99.90;;;;;;5543769;25;20001;-37
2024/04/17 05:45:36;;;;;;;1.48;1.00;;;6.90;99.90;;;;;;5530985;25;20324;-38
2024/04/17 05:48:02;;;;;;;1.70;0.88;;;6.90;99.90;;;;;;5540642;25;20498;-36
2024/04/17 05:50:27;;;;;;;2.28;1.05;;;6.90;99.90;;;;;;5537571;25;20005;-35
2024/04/17 05:52:52;;;;;;;0.77;0.75;;;6.90;99.90;;;;;;5537817;25;20470;-35
2024/04/17 05:55:18;;;;;;;1.88;0.90;;;6.80;99.90;;;;;;5543637;25;20005;-35
2024/04/17 05:57:44;;;;;;;1.00;0.90;;;6.90;99.90;;;;;;5530547;25;20015;-36
2024/04/17 06:00:12;;;;;;;1.50;1.00;;;6.90;99.90;;;;;;5543731;25;20755;-36
2024/04/17 06:02:38;;;;;;;1.35;0.75;;;6.90;99.90;;;;;;5525192;25;20082;-37
2024/04/17 06:05:04;;;;;;;0.80;0.70;;;6.90;99.90;;;;;;5543504;25;19993;-35
2024/04/17 06:07:29;;;;;;;1.50;0.70;;;6.90;99.90;;;;;;5515043;25;20005;-33
2024/04/17 06:09:55;;;;;;;1.00;0.88;;;6.90;99.90;;;;;;5509185;25;20009;-36
2024/04/17 06:12:21;;;;;;;1.77;0.80;;;6.90;99.90;;;;;;5531521;25;20001;-36
2024/04/17 06:14:47;;;;;;;2.50;0.82;;;6.90;99.90;;;;;;5512469;25;19997;-38
2024/04/17 06:17:13;;;;;;;0.70;0.70;;;7.00;99.90;;;;;;5535224;25;20597;-36
2024/04/17 06:19:38;;;;;;;3.03;0.80;;;7.00;99.90;;;;;;5511302;25;20517;-35
2024/04/17 06:22:04;;;;;;;1.63;0.93;;;7.00;99.90;;;;;;5531594;25;20193;-35
2024/04/17 06:24:29;;;;;;;1.33;0.85;;;7.00;99.90;;;;;;5515581;25;20006;-39
2024/04/17 06:26:55;;;;;;;0.98;0.68;;;7.00;99.90;;;;;;5526175;25;20000;-37
2024/04/17 06:29:20;;;;;;;2.13;0.77;;;7.00;99.90;;;;;;5521260;25;19998;-37
2024/04/17 06:31:46;;;;;;;0.95;0.60;;;6.90;99.90;;;;;;5519462;25;20028;-37
2024/04/17 06:34:11;;;;;;;1.33;0.52;;;6.90;99.90;;;;;;5521716;25;20070;-37
2024/04/17 06:36:39;;;;;;;0.82;0.70;;;6.90;99.90;;;;;;5513962;25;20013;-33
2024/04/17 06:39:05;;;;;;;2.15;0.80;;;6.90;99.90;;;;;;5526722;25;19993;-37
2024/04/17 06:41:30;;;;;;;1.15;0.73;;;6.90;99.90;;;;;;5511310;25;20020;-37
2024/04/17 06:43:56;;;;;;;0.73;0.70;;;6.90;99.90;;;;;;5530070;25;20435;-37
2024/04/17 06:46:24;;;;;;;0.60;0.60;;;7.00;99.90;;;;;;5512109;25;20004;-37
2024/04/17 06:48:51;;;;;;;1.63;0.73;;;7.00;99.90;;;;;;5526277;25;20012;-38
2024/04/17 06:51:17;;;;;;;0.82;0.70;;;7.10;99.90;;;;;;5510499;25;20040;-39
2024/04/17 06:53:42;;;;;;;2.05;0.73;;;7.10;99.90;;;;;;5533319;25;20462;-37
2024/04/17 06:56:08;;;;;;;1.60;0.60;;;7.10;99.90;;;;;;5509182;25;20004;-37
2024/04/17 06:58:33;;;;;;;0.75;0.70;;;7.10;99.90;;;;;;5530827;25;20459;-37
2024/04/17 07:01:02;;;;;;;0.90;0.70;;;7.10;99.90;;;;;;5509055;26;19994;-37
2024/04/17 07:03:27;;;;;;;0.90;0.70;;;7.10;99.90;;;;;;5529210;25;19992;-34
2024/04/17 07:06:01;;;;;;;1.08;0.70;;;7.10;99.90;;;;;;5513791;25;20012;-35
2024/04/17 07:08:26;;;;;;;0.88;0.70;;;7.20;99.90;;;;;;5526114;25;19992;-36
2024/04/17 07:10:55;;;;;;;1.08;0.80;;;7.20;99.90;;;;;;5516314;25;20774;-36
2024/04/17 07:13:20;;;;;;;2.78;1.00;;;7.40;99.90;;;;;;5523693;25;19996;-35
2024/04/17 07:15:46;;;;;;;2.55;1.00;;;7.40;99.90;;;;;;5521650;25;19997;-36
2024/04/17 07:18:11;;;;;;;1.50;1.08;;;7.50;99.90;;;;;;5518505;25;20001;-33
2024/04/17 07:20:37;;;;;;;2.05;0.93;;;7.50;99.90;;;;;;5527310;25;20081;-38
2024/04/17 07:23:03;;;;;;;2.38;1.20;;;7.50;99.90;;;;;;5513590;25;19997;-37
2024/04/17 07:25:28;;;;;;;2.17;1.00;;;7.60;99.90;;;;;;5532033;25;20535;-37
2024/04/17 07:27:56;;;;;;;2.10;0.73;;;7.60;99.90;;;;;;5513845;25;20487;-36
2024/04/17 07:30:22;;;;;;;0.73;0.70;;;7.60;99.90;;;;;;5531919;25;20012;-35
2024/04/17 07:32:48;;;;;;;3.28;1.02;;;7.60;99.90;;;;;;5511724;25;20010;-38
2024/04/17 07:35:20;;;;;;;2.20;1.08;;;7.60;99.90;;;;;;5533478;25;19998;-37
2024/04/17 07:37:45;;;;;;;2.38;1.02;;;7.60;99.90;;;;;;5511365;26;20004;-37
2024/04/17 07:40:17;;;;;;;2.47;1.17;;;7.60;99.90;;;;;;5534362;25;19996;-37
2024/04/17 07:42:46;;;;;;;3.05;0.90;;;7.70;99.90;;;;;;5510368;26;20033;-39
2024/04/17 07:45:12;;;;;;;2.85;0.95;;;7.70;99.90;;;;;;5534336;25;20065;-36
2024/04/17 07:47:38;;;;;;;4.32;1.17;;;7.80;99.90;;;;;;5509765;26;20049;-36
2024/04/17 07:50:03;;;;;;;2.78;1.00;;;7.80;99.90;;;;;;5528800;25;20008;-37
2024/04/17 07:52:29;;;;;;;3.90;1.17;;;7.90;99.90;;;;;;5510952;25;19997;-37
2024/04/17 07:54:54;;;;;;;2.03;1.10;;;8.00;99.90;;;;;;5523710;25;20444;-37
2024/04/17 07:57:26;;;;;;;4.75;1.05;;;8.10;99.90;;;;;;5514721;25;19998;-38
2024/04/17 07:59:52;;;;;;;2.17;0.90;;;8.20;99.90;;;;;;5519884;25;19996;-38
2024/04/17 08:02:17;;;;;;;2.55;1.10;;;8.30;99.90;;;;;;5520072;25;20337;-38
2024/04/17 08:04:43;;;;;;;3.17;0.90;;;8.40;99.90;;;;;;5515323;25;20338;-34
2024/04/17 08:07:08;;;;;;;2.85;1.10;;;8.50;99.90;;;;;;5528267;25;20444;-37
2024/04/17 08:09:34;;;;;;;4.90;1.08;;;8.50;99.90;;;;;;5544589;25;19996;-36
2024/04/17 08:12:00;;;;;;;4.40;1.15;;;8.60;99.90;;;;;;5526251;25;19997;-37
2024/04/17 08:14:28;;;;;;;2.95;1.08;;;8.70;99.90;;;;;;5545461;25;20005;-34
2024/04/17 08:16:54;;;;;;;5.57;1.40;;;8.80;99.90;;;;;;5527145;25;20005;-37
2024/04/17 08:19:19;;;;;;;4.78;0.88;;;8.80;99.90;;;;;;5547559;25;20869;-38
2024/04/17 08:21:45;;;;;;;4.43;1.10;;;8.90;99.90;;;;;;5523534;25;20373;-37
2024/04/17 08:24:11;;;;;;;3.00;1.15;;;8.90;99.90;;;;;;5547895;25;20076;-38
2024/04/17 08:26:36;;;;;;;2.53;0.98;;;8.90;99.90;;;;;;5523613;25;20020;-38
2024/04/17 08:29:02;;;;;;;2.78;1.20;;;9.00;99.90;;;;;;5547854;25;20009;-36
2024/04/17 08:31:28;;;;;;;4.65;1.40;;;9.00;99.90;;;;;;5525949;25;20068;-34
2024/04/17 08:33:53;;;;;;;3.90;1.27;;;9.10;99.90;;;;;;5542555;25;20076;-37
2024/04/17 08:36:19;;;;;;;5.15;1.25;;;9.20;99.90;;;;;;5528713;25;20393;-35
2024/04/17 08:38:45;;;;;;;4.53;1.20;;;9.20;99.90;;;;;;5537242;25;20008;-37
2024/04/17 08:41:10;;;;;;;3.55;1.10;;;9.20;99.90;;;;;;5533479;25;20001;-37
2024/04/17 08:43:37;;;;;;;4.95;1.45;;;9.20;99.90;;;;;;5532343;25;19996;-37
2024/04/17 08:46:04;;;;;;;4.65;0.93;;;9.20;99.90;;;;;;5535820;25;19996;-38
2024/04/17 08:48:32;;;;;;;5.60;1.23;;;9.10;99.90;;;;;;5526477;25;20643;-36
2024/04/17 11:12:58;;;;;;;0.70;0.40;;;9.60;99.90;;;;;;5520122;25;20092;-39
2024/04/17 11:15:24;;;;;;;0.52;0.30;;;9.60;99.90;;;;;;5513303;25;20459;-36
2024/04/17 11:17:49;;;;;;;1.17;0.52;;;9.50;99.90;;;;;;5532399;25;20542;-39
2024/04/17 11:20:16;;;;;;;0.68;0.30;;;9.50;99.90;;;;;;5512035;26;19997;-42
2024/04/17 11:22:43;;;;;;;0.50;0.30;;;9.50;99.90;;;;;;5535182;25;20077;-40
2024/04/17 11:25:14;;;;;;;0.68;0.50;;;9.40;99.90;;;;;;5511502;26;19990;-35
2024/04/17 11:27:39;;;;;;;1.00;0.40;;;9.40;99.90;;;;;;5534156;25;19992;-35
2024/04/17 11:30:17;;;;;;;0.32;0.32;;;9.40;99.90;;;;;;5510384;26;20001;-39
2024/04/17 11:32:44;;;;;;;0.95;0.40;;;9.40;99.90;;;;;;5523729;25;20009;-38
2024/04/17 11:35:18;;;;;;;0.60;0.50;;;9.40;99.90;;;;;;5545621;25;19997;-36
2024/04/17 11:37:49;;;;;;;1.95;0.57;;;9.50;99.90;;;;;;5523230;25;20009;-37
2024/04/17 11:40:15;;;;;;;0.68;0.40;;;9.60;99.90;;;;;;5546275;25;20681;-38
2024/04/17 11:42:42;;;;;;;0.95;0.40;;;9.70;99.90;;;;;;5526495;25;20005;-38
2024/04/17 11:45:09;;;;;;;0.82;0.30;;;9.80;99.90;;;;;;5541779;25;20030;-37
2024/04/17 11:47:36;;;;;;;0.60;0.32;;;10.00;99.90;;;;;;5532156;25;20013;-37
2024/04/17 11:50:02;;;;;;;1.17;0.40;;;10.20;99.90;;;;;;5539401;25;19997;-38
2024/04/17 11:52:32;;;;;;;1.35;0.40;;;10.50;99.90;;;;;;5538986;25;20008;-38
2024/04/17 11:54:58;;;;;;;1.08;0.40;;;10.70;99.90;;;;;;5535278;25;20011;-40
2024/04/17 11:57:23;;;;;;;1.35;0.50;;;10.90;99.90;;;;;;5541185;25;20010;-37
2024/04/17 11:59:49;;;;;;;1.17;0.50;;;11.00;99.90;;;;;;5530423;25;20411;-38
2024/04/17 12:02:15;;;;;;;2.28;0.40;;;11.10;99.90;;;;;;5544656;25;20009;-37
2024/04/17 12:04:42;;;;;;;2.15;0.50;;;11.10;99.90;;;;;;5526005;25;20005;-38
2024/04/17 12:07:11;;;;;;;1.80;0.65;;;11.00;99.90;;;;;;5544656;25;20396;-39
2024/04/17 12:09:37;;;;;;;1.33;0.70;;;10.90;99.90;;;;;;5525488;25;20125;-39
2024/04/17 12:12:03;;;;;;;0.75;0.40;;;10.60;99.90;;;;;;5547080;25;20372;-37
2024/04/17 12:14:28;;;;;;;0.60;0.40;;;10.00;99.90;;;;;;5524217;25;19997;-38
2024/04/17 12:16:55;;;;;;;0.40;0.40;;;9.40;99.90;;;;;;5546997;25;19993;-39
2024/04/17 12:19:21;;;;;;;0.55;0.38;;;9.00;99.90;;;;;;5524458;25;19997;-38
2024/04/17 12:21:48;;;;;;;0.43;0.40;;;8.60;99.90;;;;;;5548080;25;20180;-35
2024/04/17 12:24:27;;;;;;;0.70;0.50;;;8.30;99.90;;;;;;5525859;25;19998;-36
2024/04/17 12:26:53;;;;;;;0.30;0.30;;;8.00;99.90;;;;;;5546597;25;19997;-38
2024/04/17 12:29:19;;;;;;;0.43;0.40;;;7.80;99.90;;;;;;5526887;25;20065;-37
2024/04/17 12:31:44;;;;;;;0.35;0.35;;;7.60;99.90;;;;;;5541051;25;20010;-38
2024/04/17 12:34:10;;;;;;;0.50;0.50;;;7.40;99.90;;;;;;5529772;25;19997;-39
2024/04/17 12:36:39;;;;;;;0.40;0.40;;;7.10;99.90;;;;;;5535805;25;20016;-38
2024/04/17 12:39:05;;;;;;;0.65;0.40;;;7.00;99.90;;;;;;5529899;25;20712;-37
2024/04/17 12:41:31;;;;;;;0.50;0.50;;;6.80;99.90;;;;;;5528823;25;20381;-38
2024/04/17 12:44:17;;;;;;;0.50;0.40;;;6.60;99.90;;;;;;5535423;25;20452;-37
2024/04/17 12:46:43;;;;;;;0.55;0.40;;;6.40;99.90;;;;;;5530594;25;19989;-34
2024/04/17 12:49:09;;;;;;;1.48;0.60;;;6.30;99.90;;;;;;5538499;25;20340;-38
2024/04/17 12:51:34;;;;;;;0.88;0.70;;;6.20;99.90;;;;;;5527328;25;20027;-38
2024/04/17 12:54:00;;;;;;;2.25;1.02;;;6.00;99.90;;;;;;5542930;25;20495;-37
2024/04/17 12:56:25;;;;;;;2.60;0.80;;;5.70;99.90;;;;;;5526383;25;20498;-38
2024/04/17 12:58:51;;;;;;;0.98;0.98;;;5.50;99.90;;;;;;5547768;25;20002;-35
2024/04/17 13:01:19;;;;;;;1.02;0.90;;;5.40;99.90;;;;;;5530148;25;19996;-38
2024/04/17 13:03:45;;;;;;;1.10;1.00;;;5.40;99.90;;;;;;5550908;25;19997;-39
2024/04/17 13:06:11;;;;;;;1.42;1.00;;;5.30;99.90;;;;;;5525590;25;19997;-38
2024/04/17 13:08:38;;;;;;;0.90;0.90;;;5.30;99.90;;;;;;5549765;25;20012;-38
2024/04/17 13:11:04;;;;;;;1.13;1.02;;;5.30;99.90;;;;;;5526645;25;20077;-37
2024/04/17 13:13:30;;;;;;;0.90;0.90;;;5.30;99.90;;;;;;5536084;25;20056;-36
2024/04/17 13:15:59;;;;;;;1.20;1.10;;;5.40;99.90;;;;;;5532539;25;20101;-37
2024/04/17 13:18:24;;;;;;;1.15;1.05;;;5.40;99.90;;;;;;5515716;25;20708;-37
2024/04/17 13:20:57;;;;;;;1.05;0.95;;;5.50;99.90;;;;;;5527850;25;20090;-36
2024/04/17 13:23:24;;;;;;;0.90;0.90;;;5.60;99.90;;;;;;5517990;25;20073;-38
2024/04/17 13:26:00;;;;;;;1.20;1.10;;;5.70;99.90;;;;;;5524853;25;20012;-37
2024/04/17 13:28:27;;;;;;;1.17;1.08;;;5.90;99.90;;;;;;5516761;25;20002;-38
2024/04/17 13:31:03;;;;;;;0.85;0.85;;;6.00;99.90;;;;;;5521947;25;20735;-39
2024/04/17 13:33:30;;;;;;;1.52;1.00;;;6.20;99.90;;;;;;5517182;25;20001;-39
2024/04/17 13:36:04;;;;;;;1.27;1.17;;;6.30;99.90;;;;;;5519347;25;19996;-38
2024/04/17 13:38:30;;;;;;;1.30;1.08;;;6.40;99.90;;;;;;5522150;25;20090;-34
2024/04/17 13:41:07;;;;;;;0.90;0.90;;;6.40;99.90;;;;;;5518028;25;20013;-39
2024/04/17 13:43:34;;;;;;;1.02;1.00;;;6.50;99.90;;;;;;5527126;25;20012;-38
2024/04/17 13:46:07;;;;;;;0.90;0.90;;;6.60;99.90;;;;;;5518303;25;20097;-36
2024/04/17 13:48:33;;;;;;;0.80;0.80;;;6.70;99.90;;;;;;5527022;25;20070;-36
2024/04/17 13:51:00;;;;;;;1.05;0.98;;;6.80;99.90;;;;;;5514896;25;19989;-40
2024/04/17 13:53:26;;;;;;;0.93;0.82;;;7.00;99.90;;;;;;5509287;25;19993;-36
2024/04/17 13:55:52;;;;;;;0.70;0.70;;;7.10;99.90;;;;;;5546373;25;20029;-35
2024/04/17 13:58:21;;;;;;;0.70;0.70;;;7.40;99.90;;;;;;5528296;25;19993;-38
2024/04/17 14:00:47;;;;;;;0.60;0.60;;;7.50;99.90;;;;;;5549058;25;20097;-35
2024/04/17 14:03:12;;;;;;;0.60;0.60;;;7.60;99.90;;;;;;5527296;25;20008;-37
2024/04/17 14:05:38;;;;;;;0.65;0.65;;;7.60;99.90;;;;;;5550368;25;20001;-37
2024/04/17 14:08:05;;;;;;;0.50;0.50;;;7.60;99.90;;;;;;5525178;25;20009;-37
2024/04/17 14:10:31;;;;;;;0.52;0.40;;;7.60;99.90;;;;;;5549706;25;20049;-38
2024/04/17 14:12:57;;;;;;;0.75;0.60;;;7.60;99.90;;;;;;5530479;25;20006;-39
2024/04/17 14:15:22;;;;;;;0.50;0.50;;;7.70;99.90;;;;;;5549564;25;20017;-36
2024/04/17 14:17:48;;;;;;;0.60;0.60;;;7.80;99.90;;;;;;5531242;25;20006;-36
2024/04/17 14:20:14;;;;;;;0.60;0.55;;;7.90;99.90;;;;;;5543328;25;20000;-35
2024/04/17 14:22:40;;;;;;;0.70;0.70;;;8.00;99.90;;;;;;5533432;25;19998;-36
2024/04/17 14:25:06;;;;;;;0.63;0.63;;;8.00;99.90;;;;;;5535571;25;20001;-37
2024/04/17 14:27:32;;;;;;;1.60;0.82;;;8.00;99.90;;;;;;5539517;25;20052;-37
2024/04/17 14:29:58;;;;;;;0.90;0.88;;;7.90;99.90;;;;;;5530829;25;20001;-38
2024/04/17 14:32:23;;;;;;;1.58;0.88;;;7.80;99.90;;;;;;5542897;25;20101;-36
2024/04/17 14:34:49;;;;;;;1.10;1.00;;;7.80;99.90;;;;;;5525366;25;20436;-37
2024/04/17 14:37:15;;;;;;;1.00;0.98;;;7.80;99.90;;;;;;5545564;25;20039;-38
2024/04/17 14:39:40;;;;;;;0.70;0.70;;;7.80;99.90;;;;;;5526504;25;19996;-34
2024/04/17 14:42:09;;;;;;;0.52;0.52;;;8.00;99.90;;;;;;5546311;25;20032;-38
2024/04/17 14:44:35;;;;;;;0.82;0.50;;;8.00;99.90;;;;;;5521483;25;19997;-36
2024/04/17 14:47:01;;;;;;;0.50;0.50;;;8.10;99.90;;;;;;5546385;25;20024;-37
2024/04/17 14:49:28;;;;;;;0.60;0.60;;;8.10;99.90;;;;;;5521539;25;20425;-38
2024/04/17 14:51:54;;;;;;;0.80;0.80;;;8.10;99.90;;;;;;5545463;25;20754;-39
2024/04/17 14:54:19;;;;;;;1.08;0.70;;;8.10;99.90;;;;;;5523524;25;20004;-39
2024/04/17 14:56:45;;;;;;;0.60;0.60;;;8.10;99.90;;;;;;5547220;25;19999;-39
2024/04/17 14:59:10;;;;;;;0.88;0.73;;;8.00;99.90;;;;;;5530149;25;19993;-37
2024/04/17 15:01:41;;;;;;;0.60;0.60;;;8.00;99.90;;;;;;5542079;25;20000;-39
2024/04/17 15:04:07;;;;;;;0.68;0.68;;;8.10;99.90;;;;;;5534864;25;20002;-36
2024/04/17 15:06:33;;;;;;;0.80;0.80;;;8.10;99.90;;;;;;5538249;25;20072;-39
2024/04/17 15:08:58;;;;;;;1.42;0.90;;;8.10;99.90;;;;;;5539735;25;20421;-38
2024/04/17 15:11:28;;;;;;;1.30;1.00;;;8.00;99.90;;;;;;5533529;25;20460;-39
2024/04/17 15:13:57;;;;;;;0.80;0.80;;;7.90;99.90;;;;;;5532690;25;20013;-38
2024/04/17 15:16:22;;;;;;;2.58;0.90;;;7.80;99.90;;;;;;5528029;25;20004;-38